Time;durP1;ratioP1;P1;durP2;ratioP2;P2;SDS_P1;SDS_P2;PMS_P1;PMS_P2;Temp;Humidity;BMP_temperature;BMP_pressure;BME280_temperature;BME280_humidity;BME280_pressure;Samples;Min_cycle;Max_cycle;Signal;HPM_P1;HPM_P2
2023/12/18 00:01:07;;;;;;;17.10;9.73;;;7.90;86.90;;;;;;5132774;27;20023;-37
2023/12/18 00:03:32;;;;;;;15.25;9.27;;;7.90;87.00;;;;;;5132180;27;20023;-36
2023/12/18 00:05:58;;;;;;;14.15;8.82;;;7.90;86.90;;;;;;5133733;27;20031;-36
2023/12/18 00:08:24;;;;;;;15.00;8.57;;;7.90;86.90;;;;;;5135095;27;20073;-35
2023/12/18 00:10:49;;;;;;;16.23;8.77;;;7.90;87.00;;;;;;5136830;27;20042;-36
2023/12/18 00:13:15;;;;;;;13.52;8.70;;;7.90;87.00;;;;;;5136598;27;20033;-35
2023/12/18 00:15:41;;;;;;;18.13;10.07;;;7.90;86.90;;;;;;5136673;27;20024;-35
2023/12/18 00:18:07;;;;;;;15.00;8.60;;;7.90;86.90;;;;;;5136684;27;20490;-37
2023/12/18 00:20:33;;;;;;;15.73;8.35;;;7.90;87.00;;;;;;5135332;27;20099;-37
2023/12/18 00:22:58;;;;;;;12.55;8.32;;;7.90;87.00;;;;;;5136349;27;20076;-36
2023/12/18 00:25:25;;;;;;;12.73;8.52;;;7.90;87.00;;;;;;5136116;27;20035;-35
2023/12/18 00:27:50;;;;;;;14.13;8.48;;;8.00;87.00;;;;;;5136682;27;20034;-33
2023/12/18 00:30:16;;;;;;;14.98;9.52;;;7.90;87.50;;;;;;5136351;27;20473;-37
2023/12/18 00:32:41;;;;;;;14.23;8.90;;;8.00;87.00;;;;;;5135985;27;20393;-35
2023/12/18 00:35:07;;;;;;;13.32;8.50;;;7.90;86.90;;;;;;5136130;27;20035;-36
2023/12/18 00:37:33;;;;;;;16.95;8.68;;;8.00;87.00;;;;;;5136503;27;20561;-36
2023/12/18 00:39:58;;;;;;;14.63;8.25;;;8.00;87.00;;;;;;5136048;27;20030;-35
2023/12/18 00:42:24;;;;;;;15.25;7.93;;;8.00;87.00;;;;;;5136111;27;20497;-36
2023/12/18 00:44:50;;;;;;;13.27;7.57;;;8.00;86.90;;;;;;5136206;27;20030;-35
2023/12/18 00:47:15;;;;;;;13.95;8.27;;;8.00;86.90;;;;;;5135981;27;20058;-36
2023/12/18 00:49:41;;;;;;;17.05;8.48;;;8.00;86.90;;;;;;5135787;27;20035;-37
2023/12/18 00:52:07;;;;;;;11.75;8.05;;;8.00;86.90;;;;;;5135738;27;20568;-36
2023/12/18 00:54:33;;;;;;;18.02;9.73;;;8.10;86.90;;;;;;5135668;27;20035;-36
2023/12/18 00:56:58;;;;;;;17.00;9.15;;;8.00;86.70;;;;;;5135697;27;20389;-35
2023/12/18 00:59:24;;;;;;;15.40;8.23;;;8.00;86.80;;;;;;5135747;27;20038;-35
2023/12/18 01:01:49;;;;;;;17.08;8.30;;;8.10;86.90;;;;;;5135501;27;20031;-34
2023/12/18 01:04:15;;;;;;;15.20;7.90;;;8.00;86.80;;;;;;5135672;27;20035;-36
2023/12/18 01:06:40;;;;;;;15.00;8.50;;;8.00;87.50;;;;;;5135609;27;20023;-35
2023/12/18 01:09:08;;;;;;;14.95;8.07;;;8.00;86.90;;;;;;5135368;27;20046;-36
2023/12/18 01:11:34;;;;;;;13.30;8.95;;;8.10;86.90;;;;;;5135746;27;20496;-35
2023/12/18 01:13:59;;;;;;;15.43;8.35;;;8.00;86.80;;;;;;5135574;27;20023;-37
2023/12/18 01:16:25;;;;;;;13.63;7.97;;;8.10;86.90;;;;;;5135551;27;20023;-36
2023/12/18 01:18:51;;;;;;;14.13;8.00;;;8.10;87.00;;;;;;5134239;27;20019;-36
2023/12/18 01:21:17;;;;;;;18.23;8.82;;;8.10;87.00;;;;;;5135192;27;20034;-35
2023/12/18 01:23:43;;;;;;;14.00;8.48;;;8.10;86.90;;;;;;5135073;27;20046;-35
2023/12/18 01:26:08;;;;;;;12.50;8.68;;;8.10;87.00;;;;;;5135193;27;20036;-37
2023/12/18 01:28:34;;;;;;;17.88;9.02;;;8.10;86.90;;;;;;5135448;27;20052;-41
2023/12/18 01:30:59;;;;;;;12.95;8.23;;;8.10;86.80;;;;;;5135107;27;20102;-35
2023/12/18 01:33:25;;;;;;;16.40;8.93;;;8.10;86.80;;;;;;5135172;27;20027;-36
2023/12/18 01:35:51;;;;;;;15.85;9.18;;;8.00;86.80;;;;;;5134860;27;20023;-36
2023/12/18 01:38:17;;;;;;;17.67;9.32;;;8.00;86.90;;;;;;5135086;27;20102;-37
2023/12/18 01:40:44;;;;;;;14.68;8.60;;;8.00;86.90;;;;;;5134676;27;20110;-34
2023/12/18 01:43:31;;;;;;;12.93;8.48;;;8.00;87.00;;;;;;5135026;27;20038;-35
2023/12/18 01:46:01;;;;;;;15.05;8.75;;;8.00;87.00;;;;;;5134619;27;20031;-36
2023/12/18 01:48:28;;;;;;;15.90;8.88;;;8.00;87.00;;;;;;5134855;27;20609;-37
2023/12/18 01:50:54;;;;;;;16.25;9.32;;;8.00;87.00;;;;;;5134722;27;20057;-36
2023/12/18 01:53:25;;;;;;;15.50;9.27;;;8.00;87.00;;;;;;5134816;27;20034;-36
2023/12/18 01:55:51;;;;;;;14.68;8.93;;;8.00;87.00;;;;;;5133159;27;20027;-36
2023/12/18 01:58:17;;;;;;;13.40;9.30;;;8.00;87.10;;;;;;5134556;27;20027;-36
2023/12/18 02:00:43;;;;;;;16.98;9.07;;;8.00;87.10;;;;;;5134416;27;20027;-34
2023/12/18 02:03:10;;;;;;;16.25;9.70;;;8.00;87.20;;;;;;5134222;27;20501;-34
2023/12/18 02:05:37;;;;;;;13.32;8.40;;;8.00;87.20;;;;;;5134436;27;20105;-36
2023/12/18 02:08:04;;;;;;;13.25;8.93;;;8.00;87.20;;;;;;5134070;27;20047;-35
2023/12/18 02:10:30;;;;;;;17.42;8.70;;;8.00;87.20;;;;;;5134119;27;20028;-35
2023/12/18 02:12:56;;;;;;;14.88;9.25;;;8.00;87.30;;;;;;5134169;27;20091;-37
2023/12/18 02:15:21;;;;;;;12.52;7.88;;;8.10;87.30;;;;;;5134213;27;20625;-35
2023/12/18 02:17:47;;;;;;;16.75;9.65;;;8.10;87.30;;;;;;5134020;27;20410;-36
2023/12/18 02:20:13;;;;;;;13.93;8.63;;;8.10;87.20;;;;;;5134173;27;20262;-36
2023/12/18 02:22:47;;;;;;;17.08;8.40;;;8.10;87.20;;;;;;5133976;27;20082;-35
2023/12/18 02:25:15;;;;;;;13.20;8.57;;;8.10;87.30;;;;;;5134062;27;20029;-34
2023/12/18 02:27:43;;;;;;;14.75;8.93;;;8.10;87.30;;;;;;5134187;27;20097;-36
2023/12/18 02:30:14;;;;;;;12.48;8.52;;;8.10;87.20;;;;;;5133580;27;20086;-37
2023/12/18 02:32:39;;;;;;;13.70;8.52;;;8.10;87.20;;;;;;5133593;27;20107;-36
2023/12/18 02:35:06;;;;;;;12.55;8.20;;;8.10;87.30;;;;;;5133667;27;20122;-35
2023/12/18 02:37:32;;;;;;;10.25;7.90;;;8.10;87.40;;;;;;5133747;27;20071;-35
2023/12/18 02:39:57;;;;;;;15.35;8.68;;;8.20;87.40;;;;;;5133722;27;20031;-36
2023/12/18 02:42:23;;;;;;;14.57;8.77;;;8.20;87.40;;;;;;5133767;27;20037;-41
2023/12/18 02:44:48;;;;;;;13.30;7.90;;;8.10;87.30;;;;;;5133657;27;20110;-37
2023/12/18 02:47:14;;;;;;;14.23;8.77;;;8.20;87.30;;;;;;5133665;27;20057;-35
2023/12/18 02:49:39;;;;;;;13.43;8.85;;;8.20;87.40;;;;;;5133497;27;20033;-36
2023/12/18 02:52:05;;;;;;;12.95;8.68;;;8.20;87.40;;;;;;5133450;27;20019;-36
2023/12/18 02:54:31;;;;;;;14.82;9.30;;;8.20;87.40;;;;;;5133605;27;20047;-36
2023/12/18 02:56:56;;;;;;;15.15;8.80;;;8.20;87.40;;;;;;5133770;27;20031;-36
2023/12/18 02:59:22;;;;;;;14.50;9.07;;;8.20;87.40;;;;;;5133402;27;20170;-35
2023/12/18 03:01:47;;;;;;;13.77;9.10;;;8.20;87.40;;;;;;5133225;27;20383;-35
2023/12/18 03:04:13;;;;;;;14.18;9.23;;;8.10;87.40;;;;;;5133135;27;20026;-36
2023/12/18 03:06:38;;;;;;;15.32;8.85;;;8.20;87.50;;;;;;5133469;27;20498;-36
2023/12/18 03:09:04;;;;;;;17.45;9.43;;;8.20;87.40;;;;;;5133101;27;20122;-36
2023/12/18 03:11:29;;;;;;;12.27;8.98;;;8.20;87.50;;;;;;5133307;27;20338;-35
2023/12/18 03:13:55;;;;;;;19.30;9.90;;;8.20;87.50;;;;;;5132733;27;20031;-35
2023/12/18 03:16:21;;;;;;;13.25;8.40;;;8.20;87.50;;;;;;5133021;27;20445;-35
2023/12/18 03:18:46;;;;;;;14.88;8.65;;;8.30;87.50;;;;;;5132881;27;20030;-36
2023/12/18 03:21:12;;;;;;;14.07;8.07;;;8.30;87.60;;;;;;5133095;27;20412;-36
2023/12/18 03:23:37;;;;;;;10.90;7.70;;;8.30;87.60;;;;;;5132905;27;20031;-37
2023/12/18 03:26:03;;;;;;;15.40;9.48;;;8.30;87.50;;;;;;5131517;27;20034;-35
2023/12/18 03:28:29;;;;;;;14.88;8.40;;;8.40;87.60;;;;;;5132790;27;20034;-36
2023/12/18 03:30:54;;;;;;;12.75;8.60;;;8.40;87.60;;;;;;5133283;27;20507;-39
2023/12/18 03:33:20;;;;;;;15.15;9.02;;;8.30;87.50;;;;;;5132814;27;20384;-35
2023/12/18 03:35:45;;;;;;;16.15;8.88;;;8.30;87.50;;;;;;5132697;27;20027;-36
2023/12/18 03:38:14;;;;;;;13.68;8.50;;;8.30;87.50;;;;;;5132738;27;20087;-35
2023/12/18 03:40:39;;;;;;;13.13;8.77;;;8.40;87.60;;;;;;5131947;27;20031;-36
2023/12/18 03:43:05;;;;;;;14.93;9.02;;;8.40;87.70;;;;;;5132550;27;20538;-35
2023/12/18 03:45:30;;;;;;;12.43;8.48;;;8.40;87.70;;;;;;5132537;27;20039;-35
2023/12/18 03:47:56;;;;;;;12.02;8.48;;;8.40;87.70;;;;;;5132436;27;20421;-35
2023/12/18 03:50:21;;;;;;;18.33;9.20;;;8.40;87.70;;;;;;5132335;27;20023;-33
2023/12/18 03:52:47;;;;;;;15.98;9.38;;;8.40;87.60;;;;;;5132729;27;20027;-36
2023/12/18 03:55:13;;;;;;;17.23;9.00;;;8.40;87.70;;;;;;5132203;27;20038;-34
2023/12/18 03:57:39;;;;;;;13.02;8.80;;;8.40;87.70;;;;;;5132654;27;20031;-42
2023/12/18 04:00:06;;;;;;;14.00;8.77;;;8.40;87.70;;;;;;5132588;27;20031;-34
2023/12/18 04:02:31;;;;;;;16.80;8.85;;;8.40;87.80;;;;;;5132255;27;20023;-38
2023/12/18 04:04:57;;;;;;;14.05;8.63;;;8.40;87.80;;;;;;5132303;27;20187;-36
2023/12/18 04:07:22;;;;;;;13.65;9.38;;;8.40;87.80;;;;;;5131081;28;20078;-36
2023/12/18 04:09:48;;;;;;;15.07;9.02;;;8.40;87.80;;;;;;5132088;27;20054;-36
2023/12/18 04:12:14;;;;;;;15.73;9.38;;;8.40;87.80;;;;;;5132404;27;20030;-38
2023/12/18 04:14:41;;;;;;;18.02;9.07;;;8.40;87.80;;;;;;5132515;27;20023;-36
2023/12/18 04:17:06;;;;;;;13.45;8.02;;;8.40;87.90;;;;;;5132237;27;20019;-39
2023/12/18 04:19:32;;;;;;;13.73;8.35;;;8.40;87.90;;;;;;5132154;27;20467;-35
2023/12/18 04:21:57;;;;;;;13.13;8.55;;;8.40;87.90;;;;;;5132229;27;20035;-36
2023/12/18 04:24:23;;;;;;;17.13;9.38;;;8.40;87.90;;;;;;5132232;27;20035;-33
2023/12/18 04:26:48;;;;;;;15.60;8.82;;;8.40;87.90;;;;;;5132229;27;20027;-38
2023/12/18 04:29:14;;;;;;;16.65;9.68;;;8.40;88.00;;;;;;5132241;27;20117;-35
2023/12/18 04:31:39;;;;;;;16.92;9.25;;;8.40;88.00;;;;;;5132202;27;20476;-39
2023/12/18 04:34:05;;;;;;;16.25;9.60;;;8.40;88.00;;;;;;5132109;27;20037;-35
2023/12/18 04:36:30;;;;;;;16.15;9.57;;;8.40;88.00;;;;;;5132112;27;20019;-37
2023/12/18 04:38:56;;;;;;;15.65;9.98;;;8.40;88.00;;;;;;5132316;27;20043;-38
2023/12/18 04:41:22;;;;;;;17.80;9.30;;;8.40;88.10;;;;;;5131947;27;20073;-36
2023/12/18 04:43:48;;;;;;;17.33;9.85;;;8.40;88.10;;;;;;5132075;27;20064;-37
2023/12/18 04:46:14;;;;;;;17.25;10.05;;;8.40;88.10;;;;;;5132129;27;20031;-35
2023/12/18 04:48:41;;;;;;;18.65;10.80;;;8.30;88.10;;;;;;5132250;27;20302;-35
2023/12/18 04:51:07;;;;;;;17.05;9.68;;;8.30;88.10;;;;;;5131753;27;20228;-36
2023/12/18 04:53:36;;;;;;;15.70;10.25;;;8.30;88.20;;;;;;5133891;27;20096;-37
2023/12/18 04:56:03;;;;;;;15.90;9.50;;;8.30;88.20;;;;;;5135632;27;20039;-36
2023/12/18 04:58:30;;;;;;;16.00;9.10;;;8.30;88.30;;;;;;5135748;27;20042;-37
2023/12/18 05:00:56;;;;;;;13.45;9.15;;;8.30;89.00;;;;;;5135772;27;20470;-39
2023/12/18 05:03:22;;;;;;;17.25;9.55;;;8.30;88.30;;;;;;5135683;27;20418;-34
2023/12/18 05:05:47;;;;;;;15.38;8.88;;;8.30;88.40;;;;;;5134134;27;20038;-36
2023/12/18 05:08:13;;;;;;;16.30;10.18;;;8.30;88.40;;;;;;5135345;27;20544;-34
2023/12/18 05:10:39;;;;;;;15.85;9.48;;;8.30;88.40;;;;;;5135397;27;20543;-36
2023/12/18 05:13:04;;;;;;;16.30;9.60;;;8.30;88.40;;;;;;5135443;27;20486;-33
2023/12/18 05:15:30;;;;;;;14.48;9.50;;;8.30;88.50;;;;;;5135625;27;20023;-36
2023/12/18 05:17:55;;;;;;;16.90;9.40;;;8.30;88.50;;;;;;5134750;27;20439;-36
2023/12/18 05:20:21;;;;;;;16.67;9.13;;;8.30;88.50;;;;;;5134508;27;20031;-34
2023/12/18 05:22:46;;;;;;;16.48;9.32;;;8.30;88.50;;;;;;5135001;27;20416;-37
2023/12/18 05:25:12;;;;;;;16.85;9.70;;;8.40;88.60;;;;;;5135098;27;20479;-36
2023/12/18 05:27:37;;;;;;;14.52;9.55;;;8.40;88.60;;;;;;5135123;27;20501;-38
2023/12/18 05:30:03;;;;;;;17.00;9.82;;;8.40;88.60;;;;;;5135436;27;20103;-37
2023/12/18 05:32:29;;;;;;;20.45;9.75;;;8.40;88.60;;;;;;5134767;27;20019;-37
2023/12/18 05:34:55;;;;;;;17.48;10.55;;;8.40;89.20;;;;;;5135029;27;20055;-38
2023/12/18 05:37:21;;;;;;;15.23;10.20;;;8.40;88.60;;;;;;5135075;27;20096;-36
2023/12/18 05:39:46;;;;;;;15.50;10.30;;;8.30;88.60;;;;;;5135046;27;20031;-36
2023/12/18 05:42:15;;;;;;;20.02;10.63;;;8.30;88.60;;;;;;5134743;27;20360;-35
2023/12/18 05:44:41;;;;;;;16.52;11.05;;;8.30;88.60;;;;;;5135104;27;20450;-36
2023/12/18 05:47:06;;;;;;;17.00;10.70;;;8.30;88.60;;;;;;5135083;27;20141;-36
2023/12/18 05:49:32;;;;;;;18.98;10.52;;;8.30;88.70;;;;;;5134691;27;20230;-37
2023/12/18 05:51:57;;;;;;;15.25;9.98;;;8.30;88.70;;;;;;5134912;27;20023;-36
2023/12/18 05:54:23;;;;;;;17.50;10.13;;;8.30;88.80;;;;;;5134508;27;20516;-35
2023/12/18 05:56:48;;;;;;;16.15;9.85;;;8.30;88.80;;;;;;5134939;27;20019;-36
2023/12/18 05:59:14;;;;;;;16.50;10.13;;;8.30;88.80;;;;;;5134306;27;20471;-35
2023/12/18 06:01:39;;;;;;;20.70;11.32;;;8.30;88.80;;;;;;5134555;27;20040;-38
2023/12/18 06:04:05;;;;;;;18.38;11.02;;;8.30;88.80;;;;;;5133734;27;20410;-37
2023/12/18 06:06:31;;;;;;;17.83;10.73;;;8.30;88.80;;;;;;5134666;27;20087;-35
2023/12/18 06:08:56;;;;;;;16.45;10.73;;;8.30;88.90;;;;;;5132604;27;20440;-37
2023/12/18 06:11:22;;;;;;;17.13;10.93;;;8.30;88.80;;;;;;5134344;27;20027;-40
2023/12/18 06:13:47;;;;;;;17.55;11.25;;;8.30;88.80;;;;;;5132734;27;20035;-36
2023/12/18 06:16:13;;;;;;;18.77;10.75;;;8.30;88.90;;;;;;5134149;27;20028;-36
2023/12/18 06:18:38;;;;;;;17.25;11.07;;;8.30;88.90;;;;;;5134023;27;20054;-37
2023/12/18 06:21:05;;;;;;;20.05;11.45;;;8.20;88.90;;;;;;5134149;27;20023;-36
2023/12/18 06:23:31;;;;;;;15.65;10.65;;;8.20;88.90;;;;;;5133561;27;20497;-35
2023/12/18 06:25:56;;;;;;;18.13;11.75;;;8.20;88.90;;;;;;5133780;27;20038;-36
2023/12/18 06:28:22;;;;;;;17.55;11.95;;;8.20;89.00;;;;;;5133753;27;20056;-39
2023/12/18 06:30:48;;;;;;;20.58;11.98;;;8.30;89.00;;;;;;5133818;27;20119;-36
2023/12/18 06:33:14;;;;;;;22.13;13.20;;;8.30;89.00;;;;;;5133387;27;20031;-36
2023/12/18 06:35:40;;;;;;;21.60;12.52;;;8.20;89.00;;;;;;5133815;27;20026;-37
2023/12/18 06:38:06;;;;;;;18.70;11.90;;;8.20;89.00;;;;;;5133471;27;20110;-35
2023/12/18 06:40:32;;;;;;;16.27;11.85;;;8.20;89.10;;;;;;5133778;27;20047;-35
2023/12/18 06:42:57;;;;;;;18.08;11.85;;;8.20;89.10;;;;;;5133465;27;20041;-34
2023/12/18 06:45:23;;;;;;;20.35;12.20;;;8.20;89.20;;;;;;5133478;27;20037;-36
2023/12/18 06:47:49;;;;;;;21.33;13.15;;;8.20;89.10;;;;;;5133904;27;20024;-35
2023/12/18 06:50:14;;;;;;;18.20;11.85;;;8.30;89.20;;;;;;5133164;27;20440;-36
2023/12/18 06:52:40;;;;;;;19.58;11.75;;;8.30;89.20;;;;;;5133090;27;20386;-37
2023/12/18 06:55:06;;;;;;;18.75;11.27;;;8.30;89.20;;;;;;5133048;27;20083;-35
2023/12/18 06:57:32;;;;;;;17.30;11.57;;;8.30;89.20;;;;;;5133331;27;20110;-35
2023/12/18 06:59:58;;;;;;;17.30;11.55;;;8.30;89.20;;;;;;5133186;27;20099;-38
2023/12/18 07:02:24;;;;;;;23.55;12.10;;;8.30;89.20;;;;;;5132994;27;20023;-36
2023/12/18 07:04:49;;;;;;;19.27;11.73;;;8.30;89.20;;;;;;5133375;27;20381;-34
2023/12/18 07:07:15;;;;;;;22.27;12.68;;;8.30;89.20;;;;;;5133327;27;20027;-36
2023/12/18 07:09:40;;;;;;;24.20;12.60;;;8.30;89.20;;;;;;5133073;27;20084;-37
2023/12/18 07:12:06;;;;;;;18.75;12.40;;;8.30;89.10;;;;;;5133319;27;20475;-35
2023/12/18 07:14:32;;;;;;;25.75;11.82;;;8.20;89.10;;;;;;5132481;27;20023;-33
2023/12/18 07:16:58;;;;;;;19.83;12.05;;;8.30;89.30;;;;;;5132770;27;20034;-39
2023/12/18 07:19:23;;;;;;;20.60;11.73;;;8.30;89.30;;;;;;5132775;27;20470;-34
2023/12/18 07:21:49;;;;;;;18.83;11.75;;;8.30;89.30;;;;;;5132993;27;20055;-34
2023/12/18 07:24:14;;;;;;;19.65;11.38;;;8.30;89.30;;;;;;5132815;27;20453;-35
2023/12/18 07:26:40;;;;;;;18.38;11.32;;;8.30;89.30;;;;;;5133113;27;20033;-36
2023/12/18 07:29:06;;;;;;;17.70;11.48;;;8.30;89.30;;;;;;5132736;27;20019;-36
2023/12/18 07:31:31;;;;;;;22.33;13.30;;;8.40;89.30;;;;;;5132685;27;20483;-34
2023/12/18 07:33:57;;;;;;;19.35;12.05;;;8.40;89.30;;;;;;5132887;27;20050;-36
2023/12/18 07:36:22;;;;;;;22.98;12.38;;;8.40;89.30;;;;;;5132911;27;20058;-35
2023/12/18 07:38:48;;;;;;;18.27;11.95;;;8.40;89.40;;;;;;5132647;27;20027;-38
2023/12/18 07:41:14;;;;;;;19.15;11.63;;;8.30;89.30;;;;;;5132943;27;20019;-36
2023/12/18 07:43:40;;;;;;;20.30;11.85;;;8.40;90.00;;;;;;5132871;27;20046;-38
2023/12/18 07:46:05;;;;;;;21.95;12.30;;;8.40;89.50;;;;;;5132875;27;20112;-33
2023/12/18 07:48:32;;;;;;;19.35;11.88;;;8.40;89.50;;;;;;5132581;27;20149;-38
2023/12/18 07:50:57;;;;;;;22.70;11.00;;;8.40;89.50;;;;;;5132583;27;20506;-36
2023/12/18 07:53:23;;;;;;;21.17;12.20;;;8.40;89.40;;;;;;5132692;27;20100;-36
2023/12/18 07:55:49;;;;;;;17.17;11.10;;;8.40;89.40;;;;;;5132514;27;20041;-37
2023/12/18 07:58:14;;;;;;;19.10;12.10;;;8.40;89.40;;;;;;5132579;27;20073;-37
2023/12/18 08:00:40;;;;;;;17.50;11.18;;;8.40;89.50;;;;;;5132272;27;20020;-37
2023/12/18 08:03:05;;;;;;;19.27;12.25;;;8.50;89.50;;;;;;5132716;27;20042;-36
2023/12/18 08:05:31;;;;;;;19.33;11.55;;;8.50;89.40;;;;;;5132938;27;20110;-36
2023/12/18 08:07:57;;;;;;;17.73;11.07;;;8.50;89.50;;;;;;5132046;27;20028;-36
2023/12/18 08:10:22;;;;;;;16.50;10.95;;;8.50;89.40;;;;;;5132515;27;20062;-35
2023/12/18 08:12:48;;;;;;;19.85;12.05;;;8.40;89.30;;;;;;5132125;27;20029;-36
2023/12/18 08:15:14;;;;;;;21.55;12.27;;;8.40;89.30;;;;;;5132165;27;20023;-35
2023/12/18 08:17:40;;;;;;;21.40;11.95;;;8.40;89.40;;;;;;5132387;27;20371;-36
2023/12/18 08:20:07;;;;;;;20.20;11.18;;;8.40;89.40;;;;;;5132210;27;20545;-34
2023/12/18 08:22:33;;;;;;;20.08;12.23;;;8.40;89.40;;;;;;5131020;28;20035;-36
2023/12/18 08:25:00;;;;;;;19.77;11.82;;;8.50;89.40;;;;;;5132407;27;20370;-37
2023/12/18 08:27:26;;;;;;;17.73;11.95;;;8.50;89.50;;;;;;5133890;27;20031;-34
2023/12/18 08:29:52;;;;;;;20.20;10.77;;;8.50;89.40;;;;;;5136275;27;20076;-37
2023/12/18 08:32:17;;;;;;;15.98;11.38;;;8.40;89.30;;;;;;5135844;27;20042;-35
2023/12/18 08:34:43;;;;;;;17.85;11.50;;;8.50;89.30;;;;;;5136323;27;20019;-37
2023/12/18 08:37:08;;;;;;;20.00;12.23;;;8.50;90.00;;;;;;5135929;27;20116;-37
2023/12/18 08:39:34;;;;;;;21.15;11.77;;;8.50;89.40;;;;;;5136405;27;20477;-34
2023/12/18 08:41:59;;;;;;;16.98;12.07;;;8.50;89.40;;;;;;5135974;27;20023;-37
2023/12/18 08:44:25;;;;;;;18.67;12.02;;;8.50;89.30;;;;;;5136076;27;20534;-37
2023/12/18 08:46:50;;;;;;;20.35;12.68;;;8.60;89.30;;;;;;5135915;27;20111;-34
2023/12/18 08:49:16;;;;;;;21.13;12.18;;;8.50;89.20;;;;;;5135781;27;20050;-35
2023/12/18 08:51:42;;;;;;;17.63;11.65;;;8.60;89.40;;;;;;5135944;27;20391;-37
2023/12/18 08:54:07;;;;;;;20.52;11.88;;;8.50;89.30;;;;;;5135832;27;20031;-35
2023/12/18 08:56:33;;;;;;;19.63;11.10;;;8.50;89.30;;;;;;5135917;27;20015;-35
2023/12/18 08:58:59;;;;;;;20.95;10.95;;;8.60;89.40;;;;;;5135575;27;20049;-37
2023/12/18 09:01:24;;;;;;;16.58;10.95;;;8.60;89.40;;;;;;5117061;27;20546;-32
2023/12/18 09:03:50;;;;;;;22.25;11.77;;;8.60;89.40;;;;;;5135620;27;20204;-36
2023/12/18 09:06:16;;;;;;;18.48;11.80;;;8.60;89.30;;;;;;5135575;27;20031;-36
2023/12/18 09:08:42;;;;;;;17.40;11.40;;;8.70;89.40;;;;;;5135572;27;20379;-38
2023/12/18 09:11:08;;;;;;;19.80;12.07;;;8.70;89.30;;;;;;5135582;27;20059;-34
2023/12/18 09:13:36;;;;;;;21.40;12.73;;;8.70;89.20;;;;;;5135515;27;20066;-36
2023/12/18 09:16:10;;;;;;;20.75;12.57;;;8.70;89.10;;;;;;5135910;27;20023;-37
2023/12/18 09:18:36;;;;;;;20.98;12.10;;;8.70;89.10;;;;;;5133917;27;20027;-36
2023/12/18 09:21:02;;;;;;;17.38;11.05;;;8.70;89.20;;;;;;5134206;27;20282;-37
2023/12/18 09:23:27;;;;;;;19.77;12.07;;;8.70;89.20;;;;;;5133805;27;20030;-36
2023/12/18 09:25:53;;;;;;;23.63;12.88;;;8.70;89.20;;;;;;5135269;27;20023;-35
2023/12/18 09:28:18;;;;;;;22.02;12.93;;;8.70;89.10;;;;;;5135004;27;20106;-36
2023/12/18 09:30:44;;;;;;;19.13;11.43;;;8.70;89.20;;;;;;5135177;27;20023;-36
2023/12/18 09:33:10;;;;;;;17.17;11.27;;;8.70;89.30;;;;;;5135133;27;20023;-34
2023/12/18 09:35:35;;;;;;;19.77;13.02;;;8.70;89.30;;;;;;5135208;27;20019;-35
2023/12/18 09:38:01;;;;;;;18.33;11.73;;;8.70;89.20;;;;;;5134278;27;20019;-37
2023/12/18 09:40:27;;;;;;;17.98;11.07;;;8.70;89.20;;;;;;5134609;27;20011;-35
2023/12/18 09:42:53;;;;;;;22.50;11.90;;;8.70;89.30;;;;;;5134880;27;20098;-36
2023/12/18 09:45:23;;;;;;;19.27;12.32;;;8.70;89.30;;;;;;5134752;27;20027;-37
2023/12/18 09:47:52;;;;;;;22.38;13.15;;;8.80;89.30;;;;;;5134906;27;20471;-37
2023/12/18 09:50:18;;;;;;;20.45;12.50;;;8.80;89.10;;;;;;5134937;27;20033;-37
2023/12/18 09:53:01;;;;;;;18.15;11.38;;;8.80;89.10;;;;;;5134437;27;20114;-38
2023/12/18 09:55:27;;;;;;;20.30;12.15;;;8.90;89.10;;;;;;5134837;27;20019;-36
2023/12/18 09:57:57;;;;;;;20.42;11.98;;;8.90;89.00;;;;;;5134957;27;20126;-36
2023/12/18 10:00:25;;;;;;;19.95;12.68;;;9.00;89.00;;;;;;5134414;27;20507;-36
2023/12/18 10:02:51;;;;;;;21.70;12.52;;;9.00;88.90;;;;;;5134269;27;20020;-36
2023/12/18 10:05:16;;;;;;;18.55;11.65;;;9.00;88.90;;;;;;5134293;27;20023;-35
2023/12/18 10:07:42;;;;;;;21.02;12.48;;;9.10;88.90;;;;;;5134513;27;20382;-34
2023/12/18 10:10:08;;;;;;;22.85;12.43;;;9.10;88.70;;;;;;5134239;27;20053;-35
2023/12/18 10:12:33;;;;;;;18.90;11.77;;;9.10;88.70;;;;;;5134205;27;20045;-36
2023/12/18 10:14:59;;;;;;;24.15;12.68;;;9.10;88.70;;;;;;5134405;27;20027;-36
2023/12/18 10:17:25;;;;;;;22.58;12.60;;;9.10;88.60;;;;;;5134415;27;20485;-35
2023/12/18 10:19:51;;;;;;;18.88;12.70;;;9.10;88.70;;;;;;5134173;27;20443;-36
2023/12/18 10:22:17;;;;;;;20.90;13.18;;;9.10;88.60;;;;;;5133856;27;20107;-36
2023/12/18 10:24:43;;;;;;;21.17;12.25;;;9.10;88.50;;;;;;5133937;27;20026;-34
2023/12/18 10:27:09;;;;;;;20.63;12.32;;;9.10;88.60;;;;;;5133975;27;20015;-36
2023/12/18 10:29:35;;;;;;;18.63;11.52;;;9.20;88.60;;;;;;5133641;27;20030;-35
2023/12/18 10:32:01;;;;;;;22.10;11.75;;;9.20;88.50;;;;;;5132461;27;20118;-36
2023/12/18 10:34:27;;;;;;;18.80;11.80;;;9.20;88.40;;;;;;5133575;27;20023;-36
2023/12/18 10:36:55;;;;;;;19.15;11.95;;;9.30;88.50;;;;;;5133742;27;20053;-37
2023/12/18 10:39:25;;;;;;;19.13;11.15;;;9.30;88.30;;;;;;5133605;27;20035;-39
2023/12/18 10:41:54;;;;;;;23.25;12.55;;;9.40;88.30;;;;;;5133458;27;20114;-36
2023/12/18 10:44:21;;;;;;;19.15;12.20;;;9.40;88.10;;;;;;5133817;27;20055;-35
2023/12/18 10:46:49;;;;;;;20.15;12.43;;;9.40;88.00;;;;;;5133631;27;20026;-36
2023/12/18 10:49:16;;;;;;;21.15;12.82;;;9.40;88.10;;;;;;5133216;27;20027;-35
2023/12/18 10:51:44;;;;;;;19.48;11.48;;;9.40;88.00;;;;;;5133787;27;20023;-37
2023/12/18 10:54:11;;;;;;;22.92;13.10;;;9.40;88.00;;;;;;5133240;27;20023;-35
2023/12/18 10:56:39;;;;;;;19.67;11.55;;;9.40;88.00;;;;;;5133228;27;20051;-36
2023/12/18 10:59:06;;;;;;;19.80;12.38;;;9.50;88.00;;;;;;5133463;27;20045;-36
2023/12/18 11:01:34;;;;;;;16.00;11.02;;;9.50;87.80;;;;;;5132834;27;20378;-36
2023/12/18 11:04:01;;;;;;;18.35;11.63;;;9.50;87.80;;;;;;5133186;27;20027;-38
2023/12/18 11:06:28;;;;;;;21.00;11.75;;;9.60;87.80;;;;;;5131744;27;20509;-37
2023/12/18 11:08:54;;;;;;;21.10;12.23;;;9.60;87.80;;;;;;5133205;27;20043;-41
2023/12/18 11:11:21;;;;;;;24.60;12.18;;;9.60;87.60;;;;;;5133028;27;20515;-33
2023/12/18 11:14:15;;;;;;;21.85;11.48;;;9.70;87.60;;;;;;5133136;27;20020;-35
2023/12/18 11:17:17;;;;;;;20.27;11.90;;;9.70;87.50;;;;;;5128657;27;20064;-37
2023/12/18 11:19:54;;;;;;;19.08;10.93;;;9.80;87.50;;;;;;5123593;27;20606;-38
2023/12/18 11:22:44;;;;;;;20.05;11.65;;;9.80;87.30;;;;;;5133009;27;20478;-36
2023/12/18 11:25:10;;;;;;;21.70;11.73;;;9.80;87.30;;;;;;5133184;27;20095;-35
2023/12/18 11:27:37;;;;;;;17.83;10.95;;;9.80;87.10;;;;;;5132776;27;20023;-37
2023/12/18 11:30:03;;;;;;;19.48;11.40;;;9.80;87.10;;;;;;5132963;27;20106;-36
2023/12/18 11:32:43;;;;;;;19.58;11.35;;;9.70;86.90;;;;;;5131056;27;20106;-36
2023/12/18 11:35:11;;;;;;;19.58;10.95;;;9.70;87.10;;;;;;5132796;27;20023;-36
2023/12/18 11:37:50;;;;;;;16.83;11.02;;;9.70;87.20;;;;;;5132882;27;20068;-35
2023/12/18 11:40:39;;;;;;;19.38;11.43;;;9.60;87.20;;;;;;5132632;27;20020;-34
2023/12/18 11:43:07;;;;;;;20.00;11.27;;;9.60;87.20;;;;;;5132686;27;20556;-37
2023/12/18 11:45:38;;;;;;;17.45;10.85;;;9.60;87.40;;;;;;5132757;27;20386;-36
2023/12/18 11:48:05;;;;;;;20.08;11.20;;;9.60;87.40;;;;;;5132621;27;20049;-37
2023/12/18 11:50:34;;;;;;;16.17;10.90;;;9.60;87.40;;;;;;5132353;27;20180;-36
2023/12/18 11:53:00;;;;;;;18.55;12.65;;;9.60;88.10;;;;;;5132459;27;20019;-36
2023/12/18 11:55:41;;;;;;;19.85;11.00;;;9.60;87.40;;;;;;5132567;27;20019;-45
2023/12/18 11:58:07;;;;;;;19.15;12.35;;;9.60;87.40;;;;;;5132331;27;20066;-34
2023/12/18 12:00:34;;;;;;;19.17;13.02;;;9.60;87.40;;;;;;5132422;27;20482;-36
2023/12/18 12:03:03;;;;;;;20.00;11.52;;;9.60;87.30;;;;;;5138443;27;20019;-36
2023/12/18 12:05:31;;;;;;;23.85;12.65;;;9.60;87.20;;;;;;5139860;27;20461;-36
2023/12/18 12:07:57;;;;;;;17.38;11.32;;;9.60;87.30;;;;;;5139466;27;20023;-36
2023/12/18 12:10:23;;;;;;;16.05;10.85;;;9.60;87.40;;;;;;5139477;27;20015;-36
2023/12/18 12:12:56;;;;;;;20.35;12.15;;;9.60;87.40;;;;;;5139112;27;20016;-35
2023/12/18 12:15:24;;;;;;;20.88;11.57;;;9.60;87.40;;;;;;5139618;27;20027;-36
2023/12/18 12:18:05;;;;;;;20.15;11.73;;;9.60;87.40;;;;;;5139133;27;20047;-35
2023/12/18 12:20:31;;;;;;;17.90;11.68;;;9.70;87.30;;;;;;5138973;27;20023;-36
2023/12/18 12:22:57;;;;;;;17.65;11.32;;;9.70;87.30;;;;;;5137945;27;20025;-35
2023/12/18 12:25:23;;;;;;;19.92;11.05;;;9.70;87.10;;;;;;5139490;27;20019;-37
2023/12/18 12:27:49;;;;;;;20.05;11.93;;;9.80;87.10;;;;;;5139102;27;20027;-35
2023/12/18 12:30:17;;;;;;;17.42;11.05;;;9.80;87.00;;;;;;5139016;27;20534;-36
2023/12/18 12:32:42;;;;;;;22.55;11.25;;;9.80;87.10;;;;;;5139174;27;20023;-39
2023/12/18 12:35:08;;;;;;;20.38;12.77;;;9.90;87.10;;;;;;5138683;27;20023;-34
2023/12/18 12:37:34;;;;;;;20.33;11.85;;;9.90;86.70;;;;;;5138844;27;20023;-36